X  Chiuso Dati meteorologici dell'aviazione (METAR)     EBBR Brussels Airport
Temperatura
54°F Temperatura
52°F Punto di rugiada
94% Umidità



Vento
9 MPH
14 KM/O
4 M/S
8 KTS



220°
SW
Condizioni attuali

Nuvole per lo più sparse Nuvole per lo più sparse
Pressione 1013.88 (hPa) - 29.94 (inHg)
Visibilità 6 (miglio) - 9.7 (km)
Aeroporto
Codice-Aeroporto EBBR

Posizione: Brussels Airport
Distanza: 10 (mi)

Metar:
EBBR 230450Z 22008KT 9999 SCT020 12/11 Q1014 NOSIG

Ore: 23-05-2024 06:50 CEST